createdAt,value
2024-02-08T00:00:10.267Z,7.00
2024-02-08T00:02:55.472Z,6.90
2024-02-08T00:05:41.787Z,6.90
2024-02-08T00:08:26.848Z,6.90
2024-02-08T00:11:12.405Z,6.90
2024-02-08T00:13:57.801Z,6.90
2024-02-08T00:16:43.185Z,6.90
2024-02-08T00:19:28.642Z,6.90
2024-02-08T00:22:13.976Z,6.90
2024-02-08T00:24:59.418Z,6.90
2024-02-08T00:27:44.818Z,7.00
2024-02-08T00:30:30.483Z,6.90
2024-02-08T00:33:15.940Z,6.90
2024-02-08T00:36:04.647Z,6.70
2024-02-08T00:38:49.998Z,6.80
2024-02-08T00:41:35.799Z,6.80
2024-02-08T00:44:20.974Z,6.80
2024-02-08T00:47:07.706Z,6.80
2024-02-08T00:49:52.730Z,6.70
2024-02-08T00:52:38.318Z,6.50
2024-02-08T00:55:25.067Z,6.50
2024-02-08T00:58:12.233Z,6.60
2024-02-08T01:00:57.557Z,6.60
2024-02-08T01:03:43.035Z,6.60
2024-02-08T01:06:29.197Z,6.70
2024-02-08T01:09:14.944Z,6.80
2024-02-08T01:12:02.850Z,6.80
2024-02-08T01:14:49.599Z,6.80
2024-02-08T01:17:35.102Z,6.80
2024-02-08T01:20:28.766Z,6.90
2024-02-08T01:23:17.499Z,6.80
2024-02-08T01:26:04.392Z,6.80
2024-02-08T01:28:49.780Z,6.80
2024-02-08T01:31:38.902Z,6.90
2024-02-08T01:34:26.692Z,6.90
2024-02-08T01:37:16.301Z,6.90
2024-02-08T01:40:02.016Z,7.00
2024-02-08T01:42:47.644Z,7.00
2024-02-08T01:45:42.111Z,7.00
2024-02-08T01:48:27.634Z,7.00
2024-02-08T01:51:14.270Z,6.90
2024-02-08T01:54:02.468Z,6.90
2024-02-08T01:56:49.022Z,6.90
2024-02-08T01:59:34.243Z,6.90
2024-02-08T02:02:23.164Z,7.00
2024-02-08T02:05:18.978Z,6.90
2024-02-08T02:08:06.949Z,6.90
2024-02-08T02:11:11.094Z,6.90
2024-02-08T02:13:59.232Z,6.90
2024-02-08T02:16:44.898Z,6.90
2024-02-08T02:19:31.214Z,6.90
2024-02-08T02:22:20.134Z,6.90
2024-02-08T02:25:06.330Z,6.90
2024-02-08T02:27:54.568Z,7.00
2024-02-08T02:30:39.916Z,7.00
2024-02-08T02:33:26.597Z,6.90
2024-02-08T02:36:15.631Z,6.90
2024-02-08T02:39:01.077Z,6.90
2024-02-08T02:41:46.537Z,6.90
2024-02-08T02:44:32.071Z,6.90
2024-02-08T02:47:21.609Z,6.90
2024-02-08T02:50:08.919Z,6.90
2024-02-08T02:52:54.181Z,6.90
2024-02-08T02:55:39.889Z,7.00
2024-02-08T02:58:28.510Z,7.00
2024-02-08T03:01:13.925Z,6.90
2024-02-08T03:03:59.367Z,6.90
2024-02-08T03:06:46.776Z,6.80
2024-02-08T03:09:32.785Z,6.90
2024-02-08T03:12:17.714Z,6.80
2024-02-08T03:15:04.839Z,6.90
2024-02-08T03:17:50.436Z,6.90
2024-02-08T03:20:37.145Z,6.90
2024-02-08T03:23:25.283Z,6.90
2024-02-08T03:26:12.768Z,6.90
2024-02-08T03:28:58.110Z,6.80
2024-02-08T03:31:48.230Z,6.90
2024-02-08T03:34:36.455Z,6.90
2024-02-08T03:37:22.301Z,6.80
2024-02-08T03:40:09.512Z,6.80
2024-02-08T03:42:54.788Z,6.80
2024-02-08T03:45:41.574Z,6.80
2024-02-08T03:48:27.977Z,6.80
2024-02-08T03:51:14.754Z,6.80
2024-02-08T03:54:01.227Z,6.90
2024-02-08T03:56:51.186Z,6.90
2024-02-08T03:59:41.286Z,6.90
2024-02-08T04:02:27.645Z,6.90
2024-02-08T04:05:23.319Z,6.90
2024-02-08T04:08:27.541Z,7.00
2024-02-08T04:11:31.255Z,7.00
2024-02-08T04:14:35.278Z,7.00
2024-02-08T04:17:39.339Z,7.00
2024-02-08T04:20:43.266Z,7.00
2024-02-08T04:23:47.131Z,7.00
2024-02-08T04:26:51.570Z,6.90
2024-02-08T04:29:55.471Z,7.00
2024-02-08T04:32:59.352Z,7.00
2024-02-08T04:36:03.449Z,6.90
2024-02-08T04:39:08.060Z,7.00
2024-02-08T04:42:12.057Z,7.00
2024-02-08T04:45:16.045Z,7.00
2024-02-08T04:48:40.005Z,7.00
2024-02-08T04:51:43.619Z,7.00
2024-02-08T04:54:29.244Z,7.10
2024-02-08T04:57:14.842Z,7.00
2024-02-08T05:00:00.792Z,7.10
2024-02-08T05:02:46.314Z,7.10
2024-02-08T05:05:32.005Z,7.10
2024-02-08T05:08:17.420Z,7.00
2024-02-08T05:11:04.776Z,7.00
2024-02-08T05:13:51.691Z,7.10
2024-02-08T05:16:38.900Z,7.10
2024-02-08T05:19:25.236Z,7.10
2024-02-08T05:22:12.366Z,7.10
2024-02-08T05:24:59.648Z,7.10
2024-02-08T05:27:46.923Z,7.10
2024-02-08T05:30:33.781Z,7.10
2024-02-08T05:33:19.195Z,7.10
2024-02-08T05:36:08.080Z,7.00
2024-02-08T05:38:57.476Z,7.10
2024-02-08T05:41:46.148Z,7.10
2024-02-08T05:44:32.821Z,7.10
2024-02-08T05:47:27.460Z,7.00
2024-02-08T05:50:22.685Z,7.10
2024-02-08T05:53:08.193Z,7.10
2024-02-08T05:55:53.661Z,7.10
2024-02-08T05:58:39.763Z,7.10
2024-02-08T06:01:25.534Z,7.10
2024-02-08T06:04:25.829Z,7.10
2024-02-08T06:07:13.332Z,7.00
2024-02-08T06:10:15.207Z,7.10
2024-02-08T06:13:01.297Z,7.10
2024-02-08T06:15:54.388Z,7.10
2024-02-08T06:18:41.754Z,7.00
2024-02-08T06:21:42.098Z,7.00
2024-02-08T06:24:33.792Z,6.90
2024-02-08T06:27:24.467Z,6.80
2024-02-08T06:30:19.243Z,6.90
2024-02-08T06:33:18.169Z,7.00
2024-02-08T06:36:08.761Z,7.10
2024-02-08T06:38:54.752Z,7.10
2024-02-08T06:41:53.775Z,6.80
2024-02-08T06:44:39.501Z,7.10
2024-02-08T06:47:50.905Z,7.00
2024-02-08T06:50:54.764Z,7.00
2024-02-08T06:54:00.230Z,7.00
2024-02-08T06:57:05.306Z,7.00
2024-02-08T07:00:09.222Z,7.00
2024-02-08T07:03:13.214Z,7.00
2024-02-08T07:06:17.301Z,6.90
2024-02-08T07:09:21.917Z,7.00
2024-02-08T07:12:26.036Z,7.00
2024-02-08T07:15:30.208Z,6.80
2024-02-08T07:18:34.326Z,6.80
2024-02-08T07:21:41.239Z,6.80
2024-02-08T07:24:45.328Z,6.90
2024-02-08T07:27:49.048Z,7.00
2024-02-08T07:30:56.036Z,6.90
2024-02-08T07:34:01.878Z,6.80
2024-02-08T07:37:05.831Z,6.90
2024-02-08T07:40:03.674Z,6.80
2024-02-08T07:42:53.175Z,6.90
2024-02-08T07:45:38.992Z,6.90
2024-02-08T07:48:39.458Z,6.90
2024-02-08T07:51:30.101Z,6.90
2024-02-08T07:54:21.562Z,7.00
2024-02-08T07:57:06.894Z,7.10
2024-02-08T07:59:54.313Z,7.00
2024-02-08T08:02:44.139Z,6.90
2024-02-08T08:05:32.662Z,6.90
2024-02-08T08:08:30.033Z,6.90
2024-02-08T08:11:18.272Z,6.90
2024-02-08T08:14:03.406Z,7.00
2024-02-08T08:17:24.156Z,7.00
2024-02-08T08:20:28.938Z,7.00
2024-02-08T08:23:26.751Z,7.10
2024-02-08T08:26:38.466Z,7.10
2024-02-08T08:29:27.276Z,7.20
2024-02-08T08:32:32.200Z,7.20
2024-02-08T08:35:36.438Z,7.30
2024-02-08T08:38:22.315Z,7.30
2024-02-08T08:41:16.485Z,7.30
2024-02-08T08:44:08.273Z,7.30
2024-02-08T08:46:53.881Z,7.20
2024-02-08T08:49:41.032Z,7.30
2024-02-08T08:52:26.814Z,7.40
2024-02-08T08:55:12.951Z,7.40
2024-02-08T08:58:05.109Z,7.40
2024-02-08T09:01:00.209Z,7.50
2024-02-08T09:03:57.020Z,7.50
2024-02-08T09:06:43.643Z,7.50
2024-02-08T09:09:29.435Z,7.50
2024-02-08T09:12:14.944Z,7.60
2024-02-08T09:15:20.729Z,7.60
2024-02-08T09:18:10.801Z,7.60
2024-02-08T09:20:58.099Z,7.70
2024-02-08T09:23:45.656Z,7.70
2024-02-08T09:26:50.505Z,7.70
2024-02-08T09:29:40.104Z,7.70
2024-02-08T09:32:43.910Z,7.70
2024-02-08T09:35:31.504Z,7.80
2024-02-08T09:38:20.022Z,7.80
2024-02-08T09:41:10.796Z,7.80
2024-02-08T09:43:59.922Z,7.80
2024-02-08T09:46:58.077Z,7.80
2024-02-08T09:49:43.870Z,7.80
2024-02-08T09:52:32.322Z,7.80
2024-02-08T09:55:20.167Z,7.80
2024-02-08T09:58:10.404Z,7.80
2024-02-08T10:00:56.438Z,7.90
2024-02-08T10:03:46.054Z,7.90
2024-02-08T10:06:58.616Z,7.90
2024-02-08T10:09:48.549Z,7.90
2024-02-08T10:12:52.049Z,7.90
2024-02-08T10:15:41.332Z,8.00
2024-02-08T10:18:39.235Z,8.00
2024-02-08T10:21:25.181Z,8.10
2024-02-08T10:24:26.853Z,8.00
2024-02-08T10:27:23.039Z,8.00
2024-02-08T10:30:10.649Z,8.00
2024-02-08T10:32:56.057Z,8.00
2024-02-08T10:35:42.532Z,8.10
2024-02-08T10:38:31.327Z,8.10
2024-02-08T10:41:20.137Z,8.10
2024-02-08T10:44:07.043Z,8.10
2024-02-08T10:47:06.229Z,8.10
2024-02-08T10:49:53.286Z,8.20
2024-02-08T10:52:50.047Z,8.30
2024-02-08T10:55:40.499Z,8.30
2024-02-08T10:58:30.611Z,8.40
2024-02-08T11:01:36.693Z,8.50
2024-02-08T11:04:29.663Z,8.60
2024-02-08T11:07:24.590Z,8.70
2024-02-08T11:10:10.631Z,8.70
2024-02-08T11:13:02.676Z,8.80
2024-02-08T11:15:50.892Z,8.70
2024-02-08T11:18:37.502Z,8.80
2024-02-08T11:21:45.513Z,8.80
2024-02-08T11:24:39.802Z,8.90
2024-02-08T11:27:28.985Z,9.00
2024-02-08T11:30:20.468Z,9.10
2024-02-08T11:33:06.929Z,9.10
2024-02-08T11:36:14.673Z,9.10
2024-02-08T11:39:21.205Z,9.10
2024-02-08T11:42:17.262Z,9.10
2024-02-08T11:45:09.329Z,9.00
2024-02-08T11:47:56.845Z,9.00
2024-02-08T11:50:42.833Z,9.10
2024-02-08T11:53:33.187Z,9.00
2024-02-08T11:56:21.622Z,9.00
2024-02-08T11:59:09.817Z,9.10
2024-02-08T12:01:56.027Z,9.00
2024-02-08T12:04:41.813Z,9.00
2024-02-08T12:07:29.089Z,9.10
2024-02-08T12:10:16.489Z,9.20
2024-02-08T12:13:01.839Z,9.20
2024-02-08T12:15:57.702Z,9.30
2024-02-08T12:18:43.634Z,9.30
2024-02-08T12:21:28.855Z,9.30
2024-02-08T12:24:18.280Z,9.40
2024-02-08T12:27:16.249Z,9.40
2024-02-08T12:30:04.401Z,9.40
2024-02-08T12:32:55.383Z,9.40
2024-02-08T12:35:42.395Z,9.40
2024-02-08T12:38:28.381Z,9.50
2024-02-08T12:41:15.398Z,9.50
2024-02-08T12:44:00.688Z,9.50
2024-02-08T12:46:48.198Z,9.60
2024-02-08T12:49:35.439Z,9.60
2024-02-08T12:52:21.829Z,9.50
2024-02-08T12:55:08.477Z,9.50
2024-02-08T12:58:06.139Z,9.50
2024-02-08T13:01:08.363Z,9.40
2024-02-08T13:03:56.817Z,9.50
2024-02-08T13:06:43.126Z,9.50
2024-02-08T13:09:30.466Z,9.50
2024-02-08T13:12:18.548Z,9.50
2024-02-08T13:15:06.920Z,9.40
2024-02-08T13:17:52.853Z,9.50
2024-02-08T13:20:41.913Z,9.50
2024-02-08T13:23:29.257Z,9.50
2024-02-08T13:26:25.784Z,9.60
2024-02-08T13:29:18.312Z,9.60
2024-02-08T13:32:03.930Z,9.60
2024-02-08T13:34:50.176Z,9.70
2024-02-08T13:37:36.564Z,9.70
2024-02-08T13:40:26.847Z,9.80
2024-02-08T13:43:13.231Z,9.80
2024-02-08T13:45:59.777Z,9.90
2024-02-08T13:48:47.324Z,9.90
2024-02-08T13:51:34.912Z,9.90
2024-02-08T13:54:20.346Z,9.80
2024-02-08T13:57:15.502Z,10.00
2024-02-08T14:00:05.097Z,10.00
2024-02-08T14:02:52.689Z,10.10
2024-02-08T14:05:41.318Z,10.00
2024-02-08T14:08:29.666Z,10.00
2024-02-08T14:11:17.705Z,10.10
2024-02-08T14:14:04.462Z,10.10
2024-02-08T14:16:57.053Z,10.20
2024-02-08T14:19:45.113Z,10.20
2024-02-08T14:22:40.035Z,10.20
2024-02-08T14:25:38.955Z,10.20
2024-02-08T14:28:26.643Z,10.20
2024-02-08T14:31:12.183Z,10.20
2024-02-08T14:33:57.889Z,10.20
2024-02-08T14:36:48.589Z,10.30
2024-02-08T14:39:38.099Z,10.20
2024-02-08T14:42:28.905Z,10.30
2024-02-08T14:45:18.088Z,10.40
2024-02-08T14:48:04.377Z,10.40
2024-02-08T14:50:56.378Z,10.40
2024-02-08T14:53:42.212Z,10.40
2024-02-08T14:56:29.063Z,10.40
2024-02-08T14:59:15.061Z,10.30
2024-02-08T15:02:14.295Z,10.40
2024-02-08T15:05:02.463Z,10.30
2024-02-08T15:07:50.138Z,10.30
2024-02-08T15:10:45.149Z,10.40
2024-02-08T15:13:39.496Z,10.50
2024-02-08T15:16:31.629Z,10.50
2024-02-08T15:19:23.184Z,10.40
2024-02-08T15:22:19.634Z,10.40
2024-02-08T15:25:05.773Z,10.50
2024-02-08T15:27:54.562Z,10.50
2024-02-08T15:30:42.150Z,10.40
2024-02-08T15:33:30.712Z,10.40
2024-02-08T15:36:17.986Z,10.40
2024-02-08T15:39:23.477Z,10.50
2024-02-08T15:42:11.873Z,10.50
2024-02-08T15:44:59.851Z,10.60
2024-02-08T15:48:06.493Z,10.60
2024-02-08T15:50:53.138Z,10.60
2024-02-08T15:53:52.701Z,10.50
2024-02-08T15:56:39.313Z,10.50
2024-02-08T15:59:24.575Z,10.50
2024-02-08T16:02:18.132Z,10.40
2024-02-08T16:05:15.385Z,10.50
2024-02-08T16:08:07.317Z,10.50
2024-02-08T16:10:52.830Z,10.50
2024-02-08T16:13:47.993Z,10.50
2024-02-08T16:16:34.082Z,10.50
2024-02-08T16:19:43.201Z,10.50
2024-02-08T16:22:38.815Z,10.50
2024-02-08T16:25:44.241Z,10.50
2024-02-08T16:28:30.660Z,10.50
2024-02-08T16:31:18.887Z,10.50
2024-02-08T16:34:24.322Z,10.50
2024-02-08T16:37:29.842Z,10.50
2024-02-08T16:40:29.262Z,10.60
2024-02-08T16:43:15.481Z,10.60
2024-02-08T16:46:12.680Z,10.60
2024-02-08T16:49:05.222Z,10.60
2024-02-08T16:51:52.197Z,10.60
2024-02-08T16:54:48.210Z,10.60
2024-02-08T16:57:33.655Z,10.50
2024-02-08T17:00:40.445Z,10.60
2024-02-08T17:03:44.197Z,10.60
2024-02-08T17:06:35.375Z,10.60
2024-02-08T17:09:35.057Z,10.60
2024-02-08T17:12:29.320Z,10.60
2024-02-08T17:15:30.354Z,10.70
2024-02-08T17:18:25.177Z,10.70
2024-02-08T17:21:36.435Z,10.70
2024-02-08T17:24:43.431Z,10.70
2024-02-08T17:27:34.354Z,10.70
2024-02-08T17:30:26.682Z,10.60
2024-02-08T17:33:12.939Z,10.60
2024-02-08T17:36:00.730Z,10.60
2024-02-08T17:38:46.367Z,10.60
2024-02-08T17:41:31.739Z,10.60
2024-02-08T17:44:17.332Z,10.60
2024-02-08T17:47:07.570Z,10.60
2024-02-08T17:49:52.635Z,10.60
2024-02-08T17:52:39.013Z,10.60
2024-02-08T17:55:34.343Z,10.60
2024-02-08T17:58:24.008Z,10.60
2024-02-08T18:01:17.140Z,10.60
2024-02-08T18:04:03.608Z,10.70
2024-02-08T18:06:51.255Z,10.80
2024-02-08T18:09:40.926Z,10.70
2024-02-08T18:12:40.644Z,10.60
2024-02-08T18:15:26.577Z,10.70
2024-02-08T18:18:12.189Z,10.70
2024-02-08T18:20:58.701Z,10.70
2024-02-08T18:23:47.566Z,10.60
2024-02-08T18:26:33.018Z,10.60
2024-02-08T18:29:23.605Z,10.60
2024-02-08T18:32:08.903Z,10.70
2024-02-08T18:34:56.341Z,10.70
2024-02-08T18:37:45.501Z,10.60
2024-02-08T18:40:36.989Z,10.60
2024-02-08T18:43:28.272Z,10.60
2024-02-08T18:46:16.932Z,10.60
2024-02-08T18:49:02.801Z,10.60
2024-02-08T18:51:48.680Z,10.60
2024-02-08T18:54:34.315Z,10.60
2024-02-08T18:57:20.482Z,10.60
2024-02-08T19:00:14.675Z,10.50
2024-02-08T19:03:08.447Z,10.50
2024-02-08T19:05:56.117Z,10.60
2024-02-08T19:08:42.772Z,10.60
2024-02-08T19:11:29.440Z,10.70
2024-02-08T19:14:15.181Z,10.70
2024-02-08T19:17:01.926Z,10.70
2024-02-08T19:19:47.987Z,10.60
2024-02-08T19:22:33.933Z,10.60
2024-02-08T19:25:20.305Z,10.70
2024-02-08T19:28:07.754Z,10.60
2024-02-08T19:30:56.853Z,10.60
2024-02-08T19:33:43.415Z,10.60
2024-02-08T19:36:30.983Z,10.60
2024-02-08T19:39:28.050Z,10.60
2024-02-08T19:42:25.203Z,10.60
2024-02-08T19:45:18.728Z,10.50
2024-02-08T19:48:12.132Z,10.60
2024-02-08T19:50:57.627Z,10.50
2024-02-08T19:53:44.726Z,10.70
2024-02-08T19:56:34.798Z,10.70
2024-02-08T19:59:28.216Z,10.70
2024-02-08T20:02:29.196Z,10.60
2024-02-08T20:05:14.791Z,10.60
2024-02-08T20:08:04.244Z,10.60
2024-02-08T20:10:50.443Z,10.70
2024-02-08T20:13:37.423Z,10.70
2024-02-08T20:16:25.904Z,10.70
2024-02-08T20:19:14.605Z,10.70
2024-02-08T20:21:59.926Z,10.60
2024-02-08T20:24:46.985Z,10.50
2024-02-08T20:27:32.660Z,10.50
2024-02-08T20:30:22.309Z,10.50
2024-02-08T20:33:14.336Z,10.60
2024-02-08T20:36:01.938Z,10.60
2024-02-08T20:38:48.302Z,10.60
2024-02-08T20:41:33.904Z,10.60
2024-02-08T20:44:21.771Z,10.60
2024-02-08T20:47:10.122Z,10.60
2024-02-08T20:49:57.446Z,10.70
2024-02-08T20:52:43.814Z,10.70
2024-02-08T20:55:36.425Z,10.70
2024-02-08T20:58:22.367Z,10.70
2024-02-08T21:01:11.669Z,10.80
2024-02-08T21:03:57.583Z,10.70
2024-02-08T21:06:43.834Z,10.70
2024-02-08T21:09:32.416Z,10.80
2024-02-08T21:12:18.596Z,10.70
2024-02-08T21:15:04.360Z,10.70
2024-02-08T21:17:50.316Z,10.70
2024-02-08T21:20:36.315Z,10.70
2024-02-08T21:23:22.907Z,10.70
2024-02-08T21:26:16.137Z,10.60
2024-02-08T21:29:01.997Z,10.70
2024-02-08T21:31:47.196Z,10.70
2024-02-08T21:34:36.299Z,10.60
2024-02-08T21:37:22.458Z,10.60
2024-02-08T21:40:08.700Z,10.50
2024-02-08T21:42:54.267Z,10.60
2024-02-08T21:45:43.234Z,10.60
2024-02-08T21:48:29.327Z,10.40
2024-02-08T21:51:16.836Z,10.40
2024-02-08T21:54:05.948Z,10.50
2024-02-08T21:56:53.257Z,10.60
2024-02-08T21:59:38.759Z,10.60
2024-02-08T22:02:26.903Z,10.60
2024-02-08T22:05:13.273Z,10.70
2024-02-08T22:07:58.987Z,10.60
2024-02-08T22:10:50.813Z,10.60
2024-02-08T22:13:36.489Z,10.60
2024-02-08T22:16:22.226Z,10.60
2024-02-08T22:19:09.164Z,10.70
2024-02-08T22:21:54.871Z,10.80
2024-02-08T22:24:41.787Z,10.80
2024-02-08T22:27:27.836Z,10.80
2024-02-08T22:30:13.628Z,10.80
2024-02-08T22:33:02.642Z,10.80
2024-02-08T22:35:48.341Z,10.80
2024-02-08T22:38:34.491Z,10.80
2024-02-08T22:41:20.594Z,10.80
2024-02-08T22:44:07.471Z,10.80
2024-02-08T22:46:55.755Z,10.70
2024-02-08T22:49:41.365Z,10.80
2024-02-08T22:52:27.526Z,10.80
2024-02-08T22:55:23.243Z,10.80
2024-02-08T22:58:13.409Z,10.80
2024-02-08T23:01:02.307Z,10.90
2024-02-08T23:03:47.995Z,10.70
2024-02-08T23:06:36.536Z,10.70
2024-02-08T23:09:22.449Z,10.70
2024-02-08T23:12:11.964Z,10.70
2024-02-08T23:14:57.123Z,10.60
2024-02-08T23:17:42.709Z,10.60
2024-02-08T23:20:30.798Z,10.70
2024-02-08T23:23:16.003Z,10.70
2024-02-08T23:26:01.458Z,10.60
2024-02-08T23:28:47.509Z,10.70
2024-02-08T23:31:34.109Z,10.70
2024-02-08T23:34:21.022Z,10.80
2024-02-08T23:37:07.998Z,10.80
2024-02-08T23:39:53.239Z,10.70
2024-02-08T23:42:41.297Z,10.70
2024-02-08T23:45:28.341Z,10.70
2024-02-08T23:48:15.093Z,10.80
2024-02-08T23:51:00.796Z,10.70
2024-02-08T23:53:47.094Z,10.80
2024-02-08T23:56:32.251Z,10.70
2024-02-08T23:59:18.543Z,10.70
